createdAt,value
2022-11-06T00:00:07.987Z,18.61
2022-11-06T00:00:39.381Z,18.61
2022-11-06T00:01:10.776Z,18.60
2022-11-06T00:01:42.230Z,18.60
2022-11-06T00:02:17.609Z,18.61
2022-11-06T00:02:52.124Z,18.59
2022-11-06T00:03:23.614Z,18.60
2022-11-06T00:03:55.027Z,18.59
2022-11-06T00:04:26.424Z,18.59
2022-11-06T00:04:57.924Z,18.59
2022-11-06T00:05:29.307Z,18.58
2022-11-06T00:06:00.699Z,18.58
2022-11-06T00:06:32.262Z,18.57
2022-11-06T00:07:03.647Z,18.58
2022-11-06T00:07:35.030Z,18.59
2022-11-06T00:08:06.415Z,18.59
2022-11-06T00:08:37.878Z,18.58
2022-11-06T00:09:09.291Z,18.59
2022-11-06T00:09:40.682Z,18.58
2022-11-06T00:10:12.119Z,18.57
2022-11-06T00:10:43.531Z,18.58
2022-11-06T00:11:14.927Z,18.56
2022-11-06T00:11:46.315Z,18.55
2022-11-06T00:12:17.731Z,18.56
2022-11-06T00:12:49.138Z,18.55
2022-11-06T00:13:20.531Z,18.55
2022-11-06T00:13:51.937Z,18.56
2022-11-06T00:14:23.337Z,18.56
2022-11-06T00:14:54.735Z,18.55
2022-11-06T00:15:26.286Z,18.54
2022-11-06T00:15:57.687Z,18.55
2022-11-06T00:16:29.069Z,18.55
2022-11-06T00:17:00.480Z,18.52
2022-11-06T00:17:31.867Z,18.55
2022-11-06T00:18:03.256Z,18.53
2022-11-06T00:18:34.662Z,18.52
2022-11-06T00:19:06.067Z,18.52
2022-11-06T00:19:37.452Z,18.52
2022-11-06T00:20:08.837Z,18.52
2022-11-06T00:20:40.434Z,18.51
2022-11-06T00:21:11.815Z,18.52
2022-11-06T00:21:43.238Z,18.52
2022-11-06T00:22:14.628Z,18.51
2022-11-06T00:22:46.016Z,18.51
2022-11-06T00:23:17.407Z,18.51
2022-11-06T00:23:48.795Z,18.50
2022-11-06T00:24:20.203Z,18.49
2022-11-06T00:24:51.608Z,18.50
2022-11-06T00:25:22.995Z,18.48
2022-11-06T00:25:54.459Z,18.50
2022-11-06T00:26:25.851Z,18.49
2022-11-06T00:26:57.262Z,18.48
2022-11-06T00:27:28.659Z,18.48
2022-11-06T00:28:00.056Z,18.48
2022-11-06T00:28:31.447Z,18.47
2022-11-06T00:29:02.833Z,18.47
2022-11-06T00:29:34.247Z,18.46
2022-11-06T00:30:05.636Z,18.46
2022-11-06T00:30:37.022Z,18.47
2022-11-06T00:31:08.531Z,18.46
2022-11-06T00:31:39.921Z,18.46
2022-11-06T00:32:11.312Z,18.46
2022-11-06T00:32:42.720Z,18.46
2022-11-06T00:33:14.103Z,18.46
2022-11-06T00:33:45.493Z,18.45
2022-11-06T00:34:16.878Z,18.46
2022-11-06T00:34:48.267Z,18.44
2022-11-06T00:35:19.651Z,18.44
2022-11-06T00:35:51.064Z,18.44
2022-11-06T00:36:22.603Z,18.45
2022-11-06T00:36:53.995Z,18.44
2022-11-06T00:37:25.392Z,18.44
2022-11-06T00:37:56.783Z,18.44
2022-11-06T00:38:28.176Z,18.44
2022-11-06T00:38:59.574Z,18.44
2022-11-06T00:39:30.967Z,18.44
2022-11-06T00:40:02.391Z,18.43
2022-11-06T00:40:33.794Z,18.43
2022-11-06T00:41:05.183Z,18.41
2022-11-06T00:41:36.649Z,18.42
2022-11-06T00:42:08.057Z,18.43
2022-11-06T00:42:39.457Z,18.41
2022-11-06T00:43:10.872Z,18.41
2022-11-06T00:43:42.262Z,18.40
2022-11-06T00:44:13.654Z,18.41
2022-11-06T00:44:45.067Z,18.41
2022-11-06T00:45:16.479Z,18.39
2022-11-06T00:45:47.866Z,18.41
2022-11-06T00:46:19.252Z,18.42
2022-11-06T00:46:50.707Z,18.41
2022-11-06T00:47:22.109Z,18.39
2022-11-06T00:47:53.522Z,18.38
2022-11-06T00:48:24.916Z,18.38
2022-11-06T00:48:56.314Z,18.39
2022-11-06T00:49:27.707Z,18.39
2022-11-06T00:49:59.125Z,18.39
2022-11-06T00:50:30.518Z,18.38
2022-11-06T00:51:01.902Z,18.40
2022-11-06T00:51:33.295Z,18.38
2022-11-06T00:52:04.768Z,18.37
2022-11-06T00:52:36.160Z,18.38
2022-11-06T00:53:07.560Z,18.38
2022-11-06T00:53:38.969Z,18.36
2022-11-06T00:54:10.385Z,18.38
2022-11-06T00:54:41.787Z,18.37
2022-11-06T00:55:13.171Z,18.37
2022-11-06T00:55:44.618Z,18.38
2022-11-06T00:56:16.002Z,18.37
2022-11-06T00:56:47.391Z,18.36
2022-11-06T00:57:18.925Z,18.35
2022-11-06T00:57:50.366Z,18.35
2022-11-06T00:58:21.751Z,18.34
2022-11-06T00:58:53.134Z,18.35
2022-11-06T00:59:24.530Z,18.34
2022-11-06T00:59:55.917Z,18.34
2022-11-06T01:00:27.309Z,18.32
2022-11-06T01:00:58.719Z,18.33
2022-11-06T01:01:30.199Z,18.32
2022-11-06T01:02:01.817Z,18.34
2022-11-06T01:02:33.653Z,18.34
2022-11-06T01:03:05.194Z,18.34
2022-11-06T01:03:36.712Z,18.33
2022-11-06T01:04:08.095Z,18.33
2022-11-06T01:04:39.492Z,18.32
2022-11-06T01:05:10.874Z,18.33
2022-11-06T01:05:42.266Z,18.31
2022-11-06T01:06:13.665Z,18.33
2022-11-06T01:06:45.053Z,18.32
2022-11-06T01:07:16.448Z,18.31
2022-11-06T01:07:47.972Z,18.32
2022-11-06T01:08:19.374Z,18.31
2022-11-06T01:08:50.763Z,18.30
2022-11-06T01:09:22.155Z,18.29
2022-11-06T01:09:53.559Z,18.31
2022-11-06T01:10:24.951Z,18.31
2022-11-06T01:10:56.335Z,18.30
2022-11-06T01:11:28.510Z,18.30
2022-11-06T01:12:16.414Z,18.30
2022-11-06T01:12:47.894Z,18.29
2022-11-06T01:13:19.310Z,18.27
2022-11-06T01:13:50.711Z,18.28
2022-11-06T01:14:22.119Z,18.29
2022-11-06T01:14:53.525Z,18.27
2022-11-06T01:15:24.928Z,18.26
2022-11-06T01:15:56.328Z,18.27
2022-11-06T01:16:27.745Z,18.28
2022-11-06T01:16:59.136Z,18.26
2022-11-06T01:17:30.535Z,18.27
2022-11-06T01:18:01.972Z,18.26
2022-11-06T01:18:33.379Z,18.27
2022-11-06T01:19:04.878Z,18.27
2022-11-06T01:19:36.288Z,18.26
2022-11-06T01:20:07.681Z,18.26
2022-11-06T01:20:39.072Z,18.27
2022-11-06T01:21:10.468Z,18.26
2022-11-06T01:21:41.899Z,18.25
2022-11-06T01:22:13.298Z,18.25
2022-11-06T01:22:44.851Z,18.25
2022-11-06T01:23:16.325Z,18.25
2022-11-06T01:23:47.716Z,18.24
2022-11-06T01:24:19.261Z,18.23
2022-11-06T01:24:50.748Z,18.23
2022-11-06T01:25:22.169Z,18.23
2022-11-06T01:25:53.560Z,18.23
2022-11-06T01:26:37.623Z,18.23
2022-11-06T01:27:26.036Z,18.22
2022-11-06T01:27:58.070Z,18.22
2022-11-06T01:28:29.583Z,18.22
2022-11-06T01:29:00.979Z,18.22
2022-11-06T01:29:32.367Z,18.22
2022-11-06T01:30:03.759Z,18.19
2022-11-06T01:30:35.149Z,18.21
2022-11-06T01:31:06.540Z,18.19
2022-11-06T01:31:37.927Z,18.19
2022-11-06T01:32:09.333Z,18.19
2022-11-06T01:32:40.740Z,18.19
2022-11-06T01:33:12.127Z,18.18
2022-11-06T01:33:43.630Z,18.18
2022-11-06T01:34:15.019Z,18.17
2022-11-06T01:34:46.409Z,18.17
2022-11-06T01:35:17.795Z,18.16
2022-11-06T01:35:49.183Z,18.16
2022-11-06T01:36:20.577Z,18.17
2022-11-06T01:36:51.988Z,18.17
2022-11-06T01:37:23.382Z,18.17
2022-11-06T01:37:54.830Z,18.17
2022-11-06T01:38:26.226Z,18.16
2022-11-06T01:38:57.691Z,18.16
2022-11-06T01:39:29.101Z,18.16
2022-11-06T01:40:00.495Z,18.16
2022-11-06T01:40:31.888Z,18.14
2022-11-06T01:41:03.282Z,18.14
2022-11-06T01:41:34.678Z,18.15
2022-11-06T01:42:06.082Z,18.14
2022-11-06T01:42:37.469Z,18.14
2022-11-06T01:43:08.875Z,18.13
2022-11-06T01:43:40.253Z,18.13
2022-11-06T01:44:11.759Z,18.13
2022-11-06T01:44:43.196Z,18.13
2022-11-06T01:45:14.648Z,18.13
2022-11-06T01:45:46.052Z,18.12
2022-11-06T01:46:17.438Z,18.12
2022-11-06T01:46:48.827Z,18.11
2022-11-06T01:47:20.217Z,18.13
2022-11-06T01:47:51.699Z,18.12
2022-11-06T01:48:23.087Z,18.11
2022-11-06T01:48:54.572Z,18.12
2022-11-06T01:49:25.957Z,18.12
2022-11-06T01:49:57.352Z,18.12
2022-11-06T01:50:28.737Z,18.12
2022-11-06T01:51:00.131Z,18.11
2022-11-06T01:51:31.539Z,18.10
2022-11-06T01:52:02.950Z,18.10
2022-11-06T01:52:34.372Z,18.11
2022-11-06T01:53:05.768Z,18.09
2022-11-06T01:53:37.151Z,18.10
2022-11-06T01:54:08.626Z,18.09
2022-11-06T01:54:40.026Z,18.10
2022-11-06T01:55:11.426Z,18.10
2022-11-06T01:55:42.837Z,18.09
2022-11-06T01:56:14.226Z,18.09
2022-11-06T01:56:45.613Z,18.08
2022-11-06T01:57:16.995Z,18.07
2022-11-06T01:57:48.427Z,18.08
2022-11-06T01:58:19.823Z,18.08
2022-11-06T01:58:51.203Z,18.07
2022-11-06T01:59:22.692Z,18.07
2022-11-06T01:59:54.094Z,18.07
2022-11-06T02:00:25.507Z,18.06
2022-11-06T02:00:56.895Z,18.06
2022-11-06T02:01:28.345Z,18.05
2022-11-06T02:01:59.912Z,18.05
2022-11-06T02:02:31.476Z,18.05
2022-11-06T02:03:03.026Z,18.05
2022-11-06T02:03:34.492Z,18.04
2022-11-06T02:04:05.883Z,18.05
2022-11-06T02:04:37.384Z,18.04
2022-11-06T02:05:08.762Z,18.04
2022-11-06T02:05:40.170Z,18.04
2022-11-06T02:06:11.560Z,18.04
2022-11-06T02:06:42.958Z,18.04
2022-11-06T02:07:14.342Z,18.04
2022-11-06T02:07:45.731Z,18.04
2022-11-06T02:08:17.119Z,18.03
2022-11-06T02:08:48.524Z,18.05
2022-11-06T02:09:19.912Z,18.04
2022-11-06T02:09:51.422Z,18.04
2022-11-06T02:10:22.809Z,18.04
2022-11-06T02:10:54.300Z,18.03
2022-11-06T02:11:25.706Z,18.03
2022-11-06T02:11:57.098Z,18.03
2022-11-06T02:12:28.510Z,18.04
2022-11-06T02:12:59.903Z,18.04
2022-11-06T02:13:31.350Z,18.03
2022-11-06T02:14:02.755Z,18.02
2022-11-06T02:14:34.147Z,18.02
2022-11-06T02:15:05.582Z,18.02
2022-11-06T02:15:36.989Z,18.01
2022-11-06T02:16:08.399Z,18.01
2022-11-06T02:16:39.814Z,18.00
2022-11-06T02:17:11.203Z,18.01
2022-11-06T02:17:42.609Z,18.01
2022-11-06T02:18:14.407Z,18.01
2022-11-06T02:18:46.022Z,18.00
2022-11-06T02:19:17.425Z,18.00
2022-11-06T02:19:48.831Z,18.00
2022-11-06T02:20:20.373Z,17.99
2022-11-06T02:20:51.774Z,18.00
2022-11-06T02:21:23.159Z,18.00
2022-11-06T02:21:54.551Z,18.00
2022-11-06T02:22:25.939Z,17.99
2022-11-06T02:22:57.337Z,17.98
2022-11-06T02:23:28.734Z,17.99
2022-11-06T02:24:00.131Z,17.98
2022-11-06T02:24:31.545Z,17.97
2022-11-06T02:25:02.943Z,17.97
2022-11-06T02:25:34.418Z,17.97
2022-11-06T02:26:05.807Z,17.96
2022-11-06T02:26:37.204Z,17.96
2022-11-06T02:27:08.603Z,17.96
2022-11-06T02:27:40.011Z,17.95
2022-11-06T02:28:11.623Z,17.96
2022-11-06T02:28:43.295Z,17.96
2022-11-06T02:29:14.706Z,17.94
2022-11-06T02:29:46.085Z,17.95
2022-11-06T02:30:17.716Z,17.95
2022-11-06T02:30:49.234Z,17.95
2022-11-06T02:31:20.642Z,17.94
2022-11-06T02:31:52.048Z,17.93
2022-11-06T02:32:23.492Z,17.93
2022-11-06T02:32:54.895Z,17.94
2022-11-06T02:33:26.355Z,17.94
2022-11-06T02:33:57.752Z,17.94
2022-11-06T02:34:29.134Z,17.93
2022-11-06T02:35:00.517Z,17.94
2022-11-06T02:35:32.029Z,17.93
2022-11-06T02:36:03.464Z,17.92
2022-11-06T02:36:34.865Z,17.91
2022-11-06T02:37:06.275Z,17.92
2022-11-06T02:37:37.693Z,17.92
2022-11-06T02:38:09.088Z,17.92
2022-11-06T02:38:40.505Z,17.92
2022-11-06T02:39:11.912Z,17.91
2022-11-06T02:39:43.293Z,17.92
2022-11-06T02:40:14.682Z,17.91
2022-11-06T02:40:46.208Z,17.91
2022-11-06T02:41:17.614Z,17.92
2022-11-06T02:41:49.007Z,17.91
2022-11-06T02:42:20.416Z,17.91
2022-11-06T02:42:51.821Z,17.89
2022-11-06T02:43:23.256Z,17.89
2022-11-06T02:43:54.714Z,17.89
2022-11-06T02:44:26.123Z,17.90
2022-11-06T02:44:57.535Z,17.89
2022-11-06T02:45:28.931Z,17.89
2022-11-06T02:46:00.355Z,17.88
2022-11-06T02:46:31.742Z,17.88
2022-11-06T02:47:03.171Z,17.88
2022-11-06T02:47:34.562Z,17.89
2022-11-06T02:48:05.968Z,17.89
2022-11-06T02:48:37.386Z,17.87
2022-11-06T02:49:08.780Z,17.88
2022-11-06T02:49:40.166Z,17.87
2022-11-06T02:50:11.562Z,17.87
2022-11-06T02:50:42.964Z,17.88
2022-11-06T02:51:14.418Z,17.87
2022-11-06T02:51:45.831Z,17.86
2022-11-06T02:52:17.235Z,17.86
2022-11-06T02:52:48.650Z,17.87
2022-11-06T02:53:20.044Z,17.86
2022-11-06T02:53:51.431Z,17.85
2022-11-06T02:54:22.826Z,17.87
2022-11-06T02:54:54.237Z,17.86
2022-11-06T02:55:25.627Z,17.86
2022-11-06T02:55:57.015Z,17.86
2022-11-06T02:56:28.582Z,17.86
2022-11-06T02:56:59.991Z,17.85
2022-11-06T02:57:31.392Z,17.87
2022-11-06T02:58:02.802Z,17.85
2022-11-06T02:58:36.793Z,17.85
2022-11-06T02:59:10.272Z,17.85
2022-11-06T02:59:41.658Z,17.85
2022-11-06T03:00:13.050Z,17.84
2022-11-06T03:00:44.441Z,17.84
2022-11-06T03:01:15.908Z,17.83
2022-11-06T03:01:47.535Z,17.83
2022-11-06T03:02:19.104Z,17.83
2022-11-06T03:02:50.676Z,17.83
2022-11-06T03:03:22.157Z,17.84
2022-11-06T03:03:53.550Z,17.83
2022-11-06T03:04:24.930Z,17.84
2022-11-06T03:04:56.323Z,17.82
2022-11-06T03:05:27.719Z,17.82
2022-11-06T03:05:59.108Z,17.83
2022-11-06T03:06:30.504Z,17.82
2022-11-06T03:07:02.015Z,17.82
2022-11-06T03:07:33.402Z,17.82
2022-11-06T03:08:04.799Z,17.81
2022-11-06T03:08:36.514Z,17.82
2022-11-06T03:09:07.908Z,17.81
2022-11-06T03:09:39.333Z,17.81
2022-11-06T03:10:10.754Z,17.81
2022-11-06T03:10:42.155Z,17.81
2022-11-06T03:11:13.562Z,17.79
2022-11-06T03:11:44.982Z,17.81
2022-11-06T03:12:16.473Z,17.79
2022-11-06T03:12:47.870Z,17.79
2022-11-06T03:13:19.274Z,17.79
2022-11-06T03:13:50.659Z,17.79
2022-11-06T03:14:22.047Z,17.78
2022-11-06T03:14:53.426Z,17.78
2022-11-06T03:15:24.981Z,17.79
2022-11-06T03:15:56.367Z,17.78
2022-11-06T03:16:27.749Z,17.78
2022-11-06T03:16:59.243Z,17.78
2022-11-06T03:17:30.639Z,17.78
2022-11-06T03:18:02.032Z,17.76
2022-11-06T03:18:33.441Z,17.76
2022-11-06T03:19:04.834Z,17.76
2022-11-06T03:19:36.218Z,17.75
2022-11-06T03:20:07.602Z,17.75
2022-11-06T03:20:38.997Z,17.76
2022-11-06T03:21:10.385Z,17.75
2022-11-06T03:21:41.779Z,17.75
2022-11-06T03:22:13.263Z,17.75
2022-11-06T03:22:44.647Z,17.76
2022-11-06T03:23:16.040Z,17.75
2022-11-06T03:23:47.421Z,17.74
2022-11-06T03:24:18.830Z,17.75
2022-11-06T03:24:50.241Z,17.75
2022-11-06T03:25:21.625Z,17.74
2022-11-06T03:25:53.043Z,17.75
2022-11-06T03:26:24.436Z,17.74
2022-11-06T03:26:55.826Z,17.74
2022-11-06T03:27:27.226Z,17.74
2022-11-06T03:27:58.614Z,17.73
2022-11-06T03:28:30.009Z,17.72
2022-11-06T03:29:01.400Z,17.73
2022-11-06T03:29:32.792Z,17.73
2022-11-06T03:30:04.195Z,17.73
2022-11-06T03:30:35.579Z,17.73
2022-11-06T03:31:06.992Z,17.72
2022-11-06T03:31:38.386Z,17.72
2022-11-06T03:32:09.812Z,17.72
2022-11-06T03:32:41.198Z,17.71
2022-11-06T03:33:12.594Z,17.72
2022-11-06T03:33:43.979Z,17.72
2022-11-06T03:34:15.367Z,17.72
2022-11-06T03:34:46.775Z,17.71
2022-11-06T03:35:18.162Z,17.70
2022-11-06T03:35:49.553Z,17.71
2022-11-06T03:36:20.945Z,17.72
2022-11-06T03:36:52.472Z,17.71
2022-11-06T03:37:23.859Z,17.70
2022-11-06T03:37:55.257Z,17.70
2022-11-06T03:38:26.642Z,17.72
2022-11-06T03:38:58.039Z,17.70
2022-11-06T03:39:29.429Z,17.70
2022-11-06T03:40:00.835Z,17.70
2022-11-06T03:40:32.219Z,17.70
2022-11-06T03:41:03.606Z,17.70
2022-11-06T03:41:34.998Z,17.69
2022-11-06T03:42:06.546Z,17.69
2022-11-06T03:42:37.935Z,17.69
2022-11-06T03:43:09.324Z,17.69
2022-11-06T03:43:40.702Z,17.68
2022-11-06T03:44:12.089Z,17.68
2022-11-06T03:44:43.485Z,17.69
2022-11-06T03:45:14.871Z,17.69
2022-11-06T03:45:46.293Z,17.69
2022-11-06T03:46:17.676Z,17.68
2022-11-06T03:46:49.058Z,17.68
2022-11-06T03:47:20.595Z,17.67
2022-11-06T03:47:51.992Z,17.68
2022-11-06T03:48:23.381Z,17.66
2022-11-06T03:48:54.773Z,17.67
2022-11-06T03:49:26.168Z,17.66
2022-11-06T03:49:57.566Z,17.66
2022-11-06T03:50:28.964Z,17.66
2022-11-06T03:51:00.357Z,17.67
2022-11-06T03:51:31.771Z,17.66
2022-11-06T03:52:03.162Z,17.67
2022-11-06T03:52:34.656Z,17.66
2022-11-06T03:53:06.160Z,17.65
2022-11-06T03:53:37.547Z,17.67
2022-11-06T03:54:08.935Z,17.65
2022-11-06T03:54:40.343Z,17.66
2022-11-06T03:55:11.728Z,17.65
2022-11-06T03:55:43.134Z,17.65
2022-11-06T03:56:14.623Z,17.65
2022-11-06T03:56:46.006Z,17.65
2022-11-06T03:57:17.396Z,17.65
2022-11-06T03:57:48.822Z,17.65
2022-11-06T03:58:20.298Z,17.65
2022-11-06T03:58:51.805Z,17.66
2022-11-06T03:59:23.230Z,17.66
2022-11-06T03:59:54.623Z,17.64
2022-11-06T04:00:26.028Z,17.65
2022-11-06T04:00:57.430Z,17.64
2022-11-06T04:01:28.924Z,17.65
2022-11-06T04:02:00.553Z,17.63
2022-11-06T04:02:32.108Z,17.65
2022-11-06T04:03:03.727Z,17.64
2022-11-06T04:03:37.466Z,17.63
2022-11-06T04:04:08.856Z,17.63
2022-11-06T04:04:40.247Z,17.63
2022-11-06T04:05:11.634Z,17.62
2022-11-06T04:05:43.027Z,17.62
2022-11-06T04:06:14.420Z,17.63
2022-11-06T04:06:45.818Z,17.63
2022-11-06T04:07:17.207Z,17.62
2022-11-06T04:07:48.603Z,17.62
2022-11-06T04:08:19.987Z,17.62
2022-11-06T04:08:51.397Z,17.61
2022-11-06T04:09:22.784Z,17.63
2022-11-06T04:09:54.179Z,17.62
2022-11-06T04:10:25.566Z,17.62
2022-11-06T04:10:56.951Z,17.62
2022-11-06T04:11:28.343Z,17.61
2022-11-06T04:11:59.762Z,17.61
2022-11-06T04:12:31.147Z,17.60
2022-11-06T04:13:02.630Z,17.60
2022-11-06T04:13:34.021Z,17.60
2022-11-06T04:14:05.434Z,17.59
2022-11-06T04:14:36.849Z,17.59
2022-11-06T04:15:08.265Z,17.60
2022-11-06T04:15:39.671Z,17.60
2022-11-06T04:16:11.072Z,17.59
2022-11-06T04:16:42.464Z,17.57
2022-11-06T04:17:13.859Z,17.59
2022-11-06T04:17:45.270Z,17.59
2022-11-06T04:18:16.734Z,17.59
2022-11-06T04:18:48.122Z,17.58
2022-11-06T04:19:19.514Z,17.57
2022-11-06T04:19:50.912Z,17.58
2022-11-06T04:20:22.294Z,17.57
2022-11-06T04:20:53.678Z,17.57
2022-11-06T04:21:25.092Z,17.57
2022-11-06T04:21:56.483Z,17.57
2022-11-06T04:22:27.874Z,17.56
2022-11-06T04:22:59.281Z,17.56
2022-11-06T04:23:30.747Z,17.55
2022-11-06T04:24:02.155Z,17.56
2022-11-06T04:24:33.543Z,17.56
2022-11-06T04:25:04.939Z,17.56
2022-11-06T04:25:36.327Z,17.56
2022-11-06T04:26:07.731Z,17.56
2022-11-06T04:26:39.136Z,17.55
2022-11-06T04:27:10.543Z,17.57
2022-11-06T04:27:41.959Z,17.56
2022-11-06T04:28:13.493Z,17.56
2022-11-06T04:28:45.319Z,17.55
2022-11-06T04:29:16.711Z,17.54
2022-11-06T04:29:48.123Z,17.55
2022-11-06T04:30:19.515Z,17.54
2022-11-06T04:30:50.899Z,17.54
2022-11-06T04:31:22.286Z,17.54
2022-11-06T04:31:53.676Z,17.54
2022-11-06T04:32:25.087Z,17.54
2022-11-06T04:33:00.049Z,17.54
2022-11-06T04:33:32.028Z,17.53
2022-11-06T04:34:03.473Z,17.53
2022-11-06T04:34:34.859Z,17.53
2022-11-06T04:35:06.277Z,17.52
2022-11-06T04:35:37.662Z,17.52
2022-11-06T04:36:09.066Z,17.53
2022-11-06T04:36:40.449Z,17.52
2022-11-06T04:37:11.840Z,17.52
2022-11-06T04:37:43.235Z,17.52
2022-11-06T04:38:15.508Z,17.52
2022-11-06T04:38:47.183Z,17.52
2022-11-06T04:39:18.774Z,17.52
2022-11-06T04:39:50.166Z,17.52
2022-11-06T04:40:21.556Z,17.52
2022-11-06T04:40:52.943Z,17.52
2022-11-06T04:41:24.350Z,17.51
2022-11-06T04:41:55.739Z,17.49
2022-11-06T04:42:27.184Z,17.50
2022-11-06T04:42:58.570Z,17.51
2022-11-06T04:43:29.963Z,17.49
2022-11-06T04:44:01.366Z,17.49
2022-11-06T04:44:32.818Z,17.49
2022-11-06T04:45:04.211Z,17.49
2022-11-06T04:45:35.599Z,17.49
2022-11-06T04:46:06.986Z,17.49
2022-11-06T04:46:38.386Z,17.51
2022-11-06T04:47:09.779Z,17.49
2022-11-06T04:47:41.177Z,17.49
2022-11-06T04:48:12.768Z,17.49
2022-11-06T04:48:44.540Z,17.49
2022-11-06T04:49:15.977Z,17.48
2022-11-06T04:49:47.513Z,17.49
2022-11-06T04:50:18.907Z,17.48
2022-11-06T04:50:50.315Z,17.48
2022-11-06T04:51:21.725Z,17.48
2022-11-06T04:51:53.136Z,17.48
2022-11-06T04:52:24.528Z,17.48
2022-11-06T04:52:55.927Z,17.48
2022-11-06T04:53:27.312Z,17.48
2022-11-06T04:53:58.706Z,17.47
2022-11-06T04:54:30.118Z,17.47
2022-11-06T04:55:01.555Z,17.48
2022-11-06T04:55:32.952Z,17.48
2022-11-06T04:56:04.347Z,17.47
2022-11-06T04:56:37.914Z,17.48
2022-11-06T04:57:11.449Z,17.46
2022-11-06T04:57:42.843Z,17.45
2022-11-06T04:58:14.537Z,17.46
2022-11-06T04:58:46.174Z,17.46
2022-11-06T04:59:17.609Z,17.46
2022-11-06T04:59:49.014Z,17.45
2022-11-06T05:00:20.456Z,17.45
2022-11-06T05:00:51.910Z,17.46
2022-11-06T05:01:23.433Z,17.44
2022-11-06T05:01:54.955Z,17.46
2022-11-06T05:02:26.417Z,17.46
2022-11-06T05:02:57.851Z,17.45
2022-11-06T05:03:29.262Z,17.44
2022-11-06T05:04:00.662Z,17.45
2022-11-06T05:04:32.643Z,17.45
2022-11-06T05:05:04.123Z,17.43
2022-11-06T05:05:35.825Z,17.44
2022-11-06T05:06:07.214Z,17.43
2022-11-06T05:06:38.630Z,17.43
2022-11-06T05:07:10.038Z,17.44
2022-11-06T05:07:41.427Z,17.43
2022-11-06T05:08:12.923Z,17.43
2022-11-06T05:08:44.572Z,17.43
2022-11-06T05:09:15.976Z,17.42
2022-11-06T05:09:47.388Z,17.42
2022-11-06T05:10:18.779Z,17.42
2022-11-06T05:10:50.291Z,17.43
2022-11-06T05:11:21.680Z,17.42
2022-11-06T05:11:53.072Z,17.42
2022-11-06T05:12:24.466Z,17.41
2022-11-06T05:12:55.874Z,17.42
2022-11-06T05:13:27.259Z,17.41
2022-11-06T05:13:58.650Z,17.42
2022-11-06T05:14:30.084Z,17.41
2022-11-06T05:15:01.473Z,17.41
2022-11-06T05:15:32.859Z,17.41
2022-11-06T05:16:04.310Z,17.42
2022-11-06T05:16:35.697Z,17.42
2022-11-06T05:17:07.109Z,17.41
2022-11-06T05:17:38.503Z,17.41
2022-11-06T05:18:10.089Z,17.42
2022-11-06T05:18:41.654Z,17.43
2022-11-06T05:19:13.040Z,17.41
2022-11-06T05:19:44.424Z,17.41
2022-11-06T05:20:15.806Z,17.41
2022-11-06T05:20:47.200Z,17.41
2022-11-06T05:21:18.610Z,17.41
2022-11-06T05:21:50.016Z,17.41
2022-11-06T05:22:21.407Z,17.39
2022-11-06T05:22:52.795Z,17.38
2022-11-06T05:23:24.206Z,17.38
2022-11-06T05:23:55.596Z,17.39
2022-11-06T05:24:26.993Z,17.39
2022-11-06T05:24:58.438Z,17.38
2022-11-06T05:25:29.834Z,17.39
2022-11-06T05:26:01.215Z,17.37
2022-11-06T05:26:32.659Z,17.37
2022-11-06T05:27:04.047Z,17.37
2022-11-06T05:27:35.436Z,17.37
2022-11-06T05:28:06.827Z,17.38
2022-11-06T05:28:38.227Z,17.37
2022-11-06T05:29:09.613Z,17.37
2022-11-06T05:29:41.003Z,17.37
2022-11-06T05:30:12.408Z,17.37
2022-11-06T05:30:43.799Z,17.38
2022-11-06T05:31:15.191Z,17.37
2022-11-06T05:31:46.740Z,17.36
2022-11-06T05:32:18.127Z,17.36
2022-11-06T05:32:49.513Z,17.36
2022-11-06T05:33:20.896Z,17.36
2022-11-06T05:33:52.303Z,17.36
2022-11-06T05:34:23.684Z,17.34
2022-11-06T05:34:55.071Z,17.35
2022-11-06T05:35:26.458Z,17.36
2022-11-06T05:35:57.848Z,17.34
2022-11-06T05:36:29.242Z,17.34
2022-11-06T05:37:00.791Z,17.34
2022-11-06T05:37:32.203Z,17.35
2022-11-06T05:38:03.596Z,17.35
2022-11-06T05:38:34.989Z,17.35
2022-11-06T05:39:06.381Z,17.34
2022-11-06T05:39:41.550Z,17.33
2022-11-06T05:40:13.476Z,17.34
2022-11-06T05:40:44.878Z,17.34
2022-11-06T05:41:16.311Z,17.34
2022-11-06T05:41:47.760Z,17.33
2022-11-06T05:42:19.355Z,17.34
2022-11-06T05:42:50.747Z,17.33
2022-11-06T05:43:22.134Z,17.33
2022-11-06T05:43:53.552Z,17.33
2022-11-06T05:44:24.943Z,17.33
2022-11-06T05:44:56.348Z,17.32
2022-11-06T05:45:27.743Z,17.32
2022-11-06T05:45:59.175Z,17.32
2022-11-06T05:46:47.499Z,17.32
2022-11-06T05:47:19.401Z,17.31
2022-11-06T05:47:50.848Z,17.31
2022-11-06T05:48:22.243Z,17.31
2022-11-06T05:48:53.651Z,17.33
2022-11-06T05:49:25.038Z,17.31
2022-11-06T05:49:56.426Z,17.31
2022-11-06T05:50:27.810Z,17.31
2022-11-06T05:50:59.195Z,17.32
2022-11-06T05:51:30.587Z,17.30
2022-11-06T05:52:01.975Z,17.30
2022-11-06T05:52:33.393Z,17.29
2022-11-06T05:53:04.886Z,17.30
2022-11-06T05:53:36.270Z,17.30
2022-11-06T05:54:07.653Z,17.30
2022-11-06T05:54:39.099Z,17.30
2022-11-06T05:55:14.819Z,17.29
2022-11-06T05:55:46.804Z,17.29
2022-11-06T05:56:18.188Z,17.30
2022-11-06T05:56:49.585Z,17.29
2022-11-06T05:57:21.031Z,17.29
2022-11-06T05:57:52.431Z,17.29
2022-11-06T05:58:23.818Z,17.27
2022-11-06T05:58:55.215Z,17.28
2022-11-06T05:59:26.600Z,17.28
2022-11-06T05:59:58.004Z,17.27
2022-11-06T06:00:29.398Z,17.27
2022-11-06T06:01:00.791Z,17.27
2022-11-06T06:01:32.269Z,17.28
2022-11-06T06:02:03.820Z,17.28
2022-11-06T06:02:35.413Z,17.28
2022-11-06T06:03:07.008Z,17.28
2022-11-06T06:03:38.546Z,17.28
2022-11-06T06:04:09.931Z,17.27
2022-11-06T06:04:41.325Z,17.27
2022-11-06T06:05:12.731Z,17.28
2022-11-06T06:05:44.121Z,17.27
2022-11-06T06:06:15.529Z,17.28
2022-11-06T06:06:46.917Z,17.28
2022-11-06T06:07:18.299Z,17.28
2022-11-06T06:07:49.720Z,17.27
2022-11-06T06:08:21.108Z,17.28
2022-11-06T06:08:52.592Z,17.27
2022-11-06T06:09:23.983Z,17.26
2022-11-06T06:09:55.369Z,17.26
2022-11-06T06:10:26.763Z,17.26
2022-11-06T06:10:58.159Z,17.27
2022-11-06T06:11:29.571Z,17.27
2022-11-06T06:12:00.953Z,17.26
2022-11-06T06:12:32.346Z,17.26
2022-11-06T06:13:03.738Z,17.26
2022-11-06T06:13:35.134Z,17.26
2022-11-06T06:14:06.655Z,17.26
2022-11-06T06:14:38.053Z,17.26
2022-11-06T06:15:09.468Z,17.26
2022-11-06T06:15:40.858Z,17.25
2022-11-06T06:16:12.241Z,17.25
2022-11-06T06:16:43.631Z,17.26
2022-11-06T06:17:15.022Z,17.26
2022-11-06T06:17:46.434Z,17.26
2022-11-06T06:18:17.824Z,17.26
2022-11-06T06:18:49.221Z,17.26
2022-11-06T06:19:20.727Z,17.26
2022-11-06T06:19:52.184Z,17.25
2022-11-06T06:20:23.575Z,17.26
2022-11-06T06:20:54.970Z,17.27
2022-11-06T06:21:26.359Z,17.27
2022-11-06T06:21:57.757Z,17.26
2022-11-06T06:22:29.188Z,17.26
2022-11-06T06:23:00.666Z,17.26
2022-11-06T06:23:32.055Z,17.26
2022-11-06T06:24:03.450Z,17.27
2022-11-06T06:24:34.915Z,17.26
2022-11-06T06:25:12.152Z,17.26
2022-11-06T06:25:48.907Z,17.26
2022-11-06T06:26:20.318Z,17.25
2022-11-06T06:26:51.792Z,17.26
2022-11-06T06:27:23.183Z,17.25
2022-11-06T06:27:54.660Z,17.26
2022-11-06T06:28:26.060Z,17.26
2022-11-06T06:28:57.475Z,17.27
2022-11-06T06:29:28.858Z,17.27
2022-11-06T06:30:00.252Z,17.26
2022-11-06T06:30:31.681Z,17.27
2022-11-06T06:31:03.070Z,17.27
2022-11-06T06:31:34.518Z,17.27
2022-11-06T06:32:05.934Z,17.27
2022-11-06T06:32:37.323Z,17.27
2022-11-06T06:33:08.791Z,17.26
2022-11-06T06:33:40.219Z,17.26
2022-11-06T06:34:11.627Z,17.26
2022-11-06T06:34:43.054Z,17.27
2022-11-06T06:35:14.807Z,17.27
2022-11-06T06:35:46.633Z,17.27
2022-11-06T06:36:18.322Z,17.26
2022-11-06T06:36:49.974Z,17.28
2022-11-06T06:37:21.661Z,17.26
2022-11-06T06:37:53.107Z,17.26
2022-11-06T06:38:24.641Z,17.27
2022-11-06T06:38:56.047Z,17.27
2022-11-06T06:39:27.440Z,17.26
2022-11-06T06:39:58.831Z,17.26
2022-11-06T06:40:30.232Z,17.26
2022-11-06T06:41:01.629Z,17.26
2022-11-06T06:41:33.015Z,17.25
2022-11-06T06:42:04.413Z,17.25
2022-11-06T06:42:35.934Z,17.25
2022-11-06T06:43:07.362Z,17.26
2022-11-06T06:43:38.907Z,17.26
2022-11-06T06:44:10.293Z,17.26
2022-11-06T06:44:41.693Z,17.26
2022-11-06T06:45:13.575Z,17.26
2022-11-06T06:45:46.984Z,17.25
2022-11-06T06:46:18.566Z,17.26